Time;durP1;ratioP1;P1;durP2;ratioP2;P2;SDS_P1;SDS_P2;PMS_P1;PMS_P2;Temp;Humidity;BMP_temperature;BMP_pressure;BME280_temperature;BME280_humidity;BME280_pressure;Samples;Min_cycle;Max_cycle;Signal;HPM_P1;HPM_P2
2023/03/07 00:01:49;;;;;;;14.25;10.90;;;3.80;99.90;;;;;;5026608;28;20786;-71
2023/03/07 00:04:16;;;;;;;14.88;10.93;;;3.80;99.90;;;;;;5018372;28;20436;-70
2023/03/07 00:06:43;;;;;;;11.50;10.23;;;3.80;99.90;;;;;;5026211;28;20431;-71
2023/03/07 00:09:10;;;;;;;11.43;9.65;;;3.80;99.90;;;;;;5026435;28;20414;-70
2023/03/07 00:11:38;;;;;;;11.48;10.00;;;3.80;99.90;;;;;;5026013;28;21022;-71
2023/03/07 00:14:07;;;;;;;12.30;10.73;;;3.90;99.90;;;;;;5024308;28;20419;-71
2023/03/07 00:16:33;;;;;;;11.05;9.55;;;3.90;99.90;;;;;;5053294;22;20499;-68
2023/03/07 00:19:00;;;;;;;11.30;10.00;;;3.80;99.90;;;;;;5077031;23;20467;-71
2023/03/07 00:21:30;;;;;;;11.35;9.75;;;3.90;99.90;;;;;;5088909;28;20408;-68
2023/03/07 00:23:57;;;;;;;11.23;9.30;;;3.80;99.90;;;;;;5086852;28;20451;-68
2023/03/07 00:26:25;;;;;;;9.18;8.18;;;3.90;99.90;;;;;;5065677;28;20436;-68
2023/03/07 00:28:54;;;;;;;9.82;8.70;;;3.80;99.90;;;;;;5063791;28;20438;-69
2023/03/07 00:31:23;;;;;;;9.43;8.43;;;3.90;99.90;;;;;;5056739;28;20470;-68
2023/03/07 00:33:49;;;;;;;7.68;6.88;;;3.90;99.90;;;;;;5069963;28;20439;-71
2023/03/07 00:36:19;;;;;;;7.13;6.45;;;3.90;99.90;;;;;;5077890;28;20414;-68
2023/03/07 00:38:46;;;;;;;6.90;6.20;;;3.90;99.90;;;;;;5058070;28;20535;-67
2023/03/07 00:41:16;;;;;;;6.40;5.80;;;3.90;99.90;;;;;;5062105;28;20467;-69
2023/03/07 00:43:44;;;;;;;6.20;5.60;;;3.90;99.90;;;;;;5062493;28;20955;-68
2023/03/07 00:46:13;;;;;;;5.40;4.90;;;4.00;99.90;;;;;;5056648;28;20989;-68
2023/03/07 00:48:40;;;;;;;5.20;4.70;;;4.00;99.90;;;;;;5072155;28;20429;-68
2023/03/07 00:51:09;;;;;;;5.13;4.72;;;4.00;99.90;;;;;;5068941;28;20421;-68
2023/03/07 00:53:37;;;;;;;4.20;3.80;;;4.00;99.90;;;;;;5062330;28;20424;-69
2023/03/07 00:56:05;;;;;;;4.68;4.20;;;4.10;99.90;;;;;;5058282;28;20414;-68
2023/03/07 00:58:34;;;;;;;4.50;4.10;;;4.10;99.90;;;;;;5060525;28;20417;-68
2023/03/07 01:01:01;;;;;;;4.60;4.20;;;4.10;99.90;;;;;;5061089;28;20860;-67
2023/03/07 01:03:31;;;;;;;4.70;4.30;;;4.10;99.90;;;;;;5073751;28;20860;-69
2023/03/07 01:05:58;;;;;;;4.00;3.70;;;4.10;99.90;;;;;;5067245;28;20427;-68
2023/03/07 01:08:25;;;;;;;3.58;3.28;;;4.20;99.90;;;;;;5068755;28;20441;-67
2023/03/07 01:10:52;;;;;;;3.80;3.50;;;4.20;99.90;;;;;;5074083;28;20414;-71
2023/03/07 01:13:19;;;;;;;3.60;3.30;;;4.20;99.90;;;;;;5067776;28;20424;-67
2023/03/07 01:15:46;;;;;;;4.18;3.78;;;4.20;99.90;;;;;;5067302;28;20492;-67
2023/03/07 01:18:13;;;;;;;4.30;3.90;;;4.20;99.90;;;;;;5070281;28;20409;-69
2023/03/07 01:20:41;;;;;;;4.20;3.80;;;4.20;99.90;;;;;;5076704;28;20503;-69
2023/03/07 01:23:08;;;;;;;3.90;3.50;;;4.20;99.90;;;;;;5069467;28;20419;-68
2023/03/07 01:25:39;;;;;;;3.90;3.40;;;4.20;99.90;;;;;;5066109;28;20419;-69
2023/03/07 01:28:06;;;;;;;3.80;3.50;;;4.30;99.90;;;;;;5057299;28;20517;-70
2023/03/07 01:30:34;;;;;;;3.73;3.43;;;4.30;99.90;;;;;;5061291;28;20526;-68
2023/03/07 01:33:02;;;;;;;4.03;3.63;;;4.30;99.90;;;;;;5070159;28;20459;-69
2023/03/07 01:35:29;;;;;;;4.13;3.72;;;4.30;99.90;;;;;;5070154;28;20419;-68
2023/03/07 01:37:57;;;;;;;4.10;3.70;;;4.30;99.90;;;;;;5066019;28;20779;-69
2023/03/07 01:40:24;;;;;;;4.10;3.70;;;4.30;99.90;;;;;;5068644;28;20438;-69
2023/03/07 01:42:52;;;;;;;4.10;3.80;;;4.30;99.90;;;;;;5063078;28;20439;-68
2023/03/07 01:45:57;;;;;;;3.72;3.42;;;4.30;99.90;;;;;;5068887;28;20479;-68
2023/03/07 01:48:23;;;;;;;4.00;3.70;;;4.30;99.90;;;;;;5064142;28;20433;-68
2023/03/07 01:50:50;;;;;;;4.00;3.70;;;4.30;99.90;;;;;;5062071;28;20850;-69
2023/03/07 01:53:20;;;;;;;4.78;4.38;;;4.20;99.90;;;;;;5058963;28;20418;-70
2023/03/07 01:55:47;;;;;;;3.67;3.38;;;4.30;99.90;;;;;;5059022;28;20448;-69
2023/03/07 01:58:15;;;;;;;4.30;3.90;;;4.20;99.90;;;;;;5060152;28;20494;-69
2023/03/07 02:00:44;;;;;;;4.70;4.30;;;4.20;99.90;;;;;;5073787;28;20433;-68
2023/03/07 02:03:18;;;;;;;4.50;4.10;;;4.20;99.90;;;;;;5070660;28;20422;-69
2023/03/07 02:05:50;;;;;;;4.60;4.20;;;4.10;99.90;;;;;;5063693;28;20420;-68
2023/03/07 02:08:21;;;;;;;5.47;4.97;;;4.10;99.90;;;;;;5058821;28;20427;-68
2023/03/07 02:10:48;;;;;;;4.78;4.38;;;4.10;99.90;;;;;;5058525;28;20443;-69
2023/03/07 02:13:15;;;;;;;4.80;4.40;;;4.10;99.90;;;;;;5061211;28;20424;-69
2023/03/07 02:15:42;;;;;;;4.65;4.25;;;4.10;99.90;;;;;;5078688;28;20460;-72
2023/03/07 02:18:12;;;;;;;4.35;4.05;;;4.10;99.90;;;;;;5080383;28;20406;-71
2023/03/07 02:20:46;;;;;;;4.90;4.50;;;4.10;99.90;;;;;;5078130;28;20435;-69
2023/03/07 02:23:23;;;;;;;5.07;4.68;;;4.10;99.90;;;;;;5071085;28;20401;-69
2023/03/07 02:25:56;;;;;;;5.10;4.70;;;4.10;99.90;;;;;;5072342;28;20477;-69
2023/03/07 02:28:25;;;;;;;4.70;4.30;;;4.10;99.90;;;;;;5059806;28;20427;-70
2023/03/07 02:30:57;;;;;;;5.57;4.97;;;4.20;99.90;;;;;;5072653;28;20407;-69
2023/03/07 02:33:24;;;;;;;5.60;5.10;;;4.20;99.90;;;;;;5055983;28;20414;-67
2023/03/07 02:35:54;;;;;;;4.90;4.50;;;4.20;99.90;;;;;;5063008;28;20439;-68
2023/03/07 02:38:22;;;;;;;5.88;5.38;;;4.30;99.90;;;;;;5083084;28;20419;-69
2023/03/07 02:40:49;;;;;;;5.90;5.30;;;4.30;99.90;;;;;;5061422;28;20429;-69
2023/03/07 02:43:16;;;;;;;5.68;5.20;;;4.30;99.90;;;;;;5061669;28;20432;-69
2023/03/07 02:45:44;;;;;;;5.60;5.20;;;4.30;99.90;;;;;;5071079;28;20441;-69
2023/03/07 02:48:11;;;;;;;5.90;5.40;;;4.40;99.90;;;;;;5065247;28;20423;-69
2023/03/07 02:50:38;;;;;;;5.97;5.47;;;4.40;99.90;;;;;;5061915;28;20825;-70
2023/03/07 02:53:04;;;;;;;5.60;5.10;;;4.50;99.90;;;;;;5068051;28;20417;-68
2023/03/07 02:55:32;;;;;;;5.55;5.15;;;4.50;99.90;;;;;;5057525;28;20447;-69
2023/03/07 02:57:59;;;;;;;5.40;5.00;;;4.50;99.90;;;;;;5075934;28;20411;-68
2023/03/07 03:00:26;;;;;;;6.20;5.60;;;4.50;99.90;;;;;;5073351;28;20804;-69
2023/03/07 03:02:54;;;;;;;6.00;5.40;;;4.50;99.90;;;;;;5064737;28;20418;-69
2023/03/07 03:05:21;;;;;;;5.88;5.38;;;4.40;99.90;;;;;;5058362;28;20412;-70
2023/03/07 03:07:48;;;;;;;6.37;5.80;;;4.40;99.90;;;;;;5070076;28;20439;-69
2023/03/07 03:10:15;;;;;;;5.80;5.30;;;4.30;99.90;;;;;;5063944;28;20469;-69
2023/03/07 03:12:42;;;;;;;6.20;5.70;;;4.30;99.90;;;;;;5054685;28;20453;-69
2023/03/07 03:15:10;;;;;;;6.70;6.20;;;4.30;99.90;;;;;;5068511;28;20906;-70
2023/03/07 03:17:37;;;;;;;5.22;4.82;;;4.30;99.90;;;;;;5067025;28;20490;-69
2023/03/07 03:20:10;;;;;;;5.63;5.20;;;4.30;99.90;;;;;;5054770;28;20423;-69
2023/03/07 03:22:37;;;;;;;6.00;5.50;;;4.20;99.90;;;;;;5058217;28;20431;-69
2023/03/07 03:25:04;;;;;;;6.13;5.63;;;4.30;99.90;;;;;;5064303;28;20421;-69
2023/03/07 03:27:32;;;;;;;5.82;5.32;;;4.20;99.90;;;;;;5057990;28;20501;-69
2023/03/07 03:29:58;;;;;;;5.75;5.25;;;4.20;99.90;;;;;;5069673;28;20446;-70
2023/03/07 03:32:25;;;;;;;6.00;5.50;;;4.20;99.90;;;;;;5067882;28;20417;-70
2023/03/07 03:34:52;;;;;;;6.28;5.70;;;4.20;99.90;;;;;;5055914;28;20433;-69
2023/03/07 03:37:20;;;;;;;5.68;5.18;;;4.20;99.90;;;;;;5072125;28;20420;-69
2023/03/07 03:39:47;;;;;;;6.20;5.70;;;4.20;99.90;;;;;;5057034;28;20427;-69
2023/03/07 03:42:14;;;;;;;6.30;5.70;;;4.10;99.90;;;;;;5057412;28;20416;-69
2023/03/07 03:44:40;;;;;;;6.63;6.03;;;4.10;99.90;;;;;;5056238;28;20456;-69
2023/03/07 03:47:07;;;;;;;6.18;5.60;;;4.10;99.90;;;;;;5062567;28;20466;-70
2023/03/07 03:49:34;;;;;;;6.15;5.65;;;4.10;99.90;;;;;;5059704;28;20420;-68
2023/03/07 03:52:01;;;;;;;6.25;5.75;;;4.10;99.90;;;;;;5059130;28;20417;-68
2023/03/07 03:54:29;;;;;;;6.80;6.07;;;4.00;99.90;;;;;;5058597;28;20499;-69
2023/03/07 03:56:56;;;;;;;6.70;6.10;;;4.00;99.90;;;;;;5054935;28;20477;-68
2023/03/07 03:59:23;;;;;;;6.90;6.25;;;4.00;99.90;;;;;;5069090;28;20891;-69
2023/03/07 04:01:50;;;;;;;7.20;6.60;;;4.00;99.90;;;;;;5070771;28;20430;-69
2023/03/07 04:04:17;;;;;;;6.63;6.03;;;3.90;99.90;;;;;;5060036;28;20428;-68
2023/03/07 04:06:44;;;;;;;6.40;5.80;;;4.00;99.90;;;;;;5073024;28;20410;-69
2023/03/07 04:09:10;;;;;;;6.53;6.00;;;3.90;99.90;;;;;;5070894;28;20424;-67
2023/03/07 04:11:38;;;;;;;6.93;6.32;;;3.90;99.90;;;;;;5070904;28;20410;-68
2023/03/07 04:14:05;;;;;;;6.82;6.22;;;3.90;99.90;;;;;;5084816;28;20424;-69
2023/03/07 04:16:32;;;;;;;7.40;6.70;;;3.90;99.90;;;;;;5082618;28;20497;-68
2023/03/07 04:18:59;;;;;;;6.28;5.78;;;3.90;99.90;;;;;;5077782;28;20418;-67
2023/03/07 04:21:26;;;;;;;6.72;6.13;;;3.90;99.90;;;;;;5072788;28;20405;-68
2023/03/07 04:23:54;;;;;;;6.55;5.95;;;3.90;99.90;;;;;;5075863;28;20408;-69
2023/03/07 04:26:21;;;;;;;6.75;6.10;;;3.90;99.90;;;;;;5072447;28;20424;-69
2023/03/07 04:28:49;;;;;;;6.97;6.37;;;3.90;99.90;;;;;;5077312;28;20464;-68
2023/03/07 04:31:18;;;;;;;6.65;6.10;;;3.90;99.90;;;;;;5070944;28;20529;-69
2023/03/07 04:33:46;;;;;;;6.57;5.97;;;3.90;99.90;;;;;;5058858;28;20429;-68
2023/03/07 04:36:13;;;;;;;6.60;6.00;;;3.90;99.90;;;;;;5067727;28;20417;-69
2023/03/07 04:38:41;;;;;;;6.68;6.07;;;3.90;99.90;;;;;;5072311;28;20409;-68
2023/03/07 04:41:08;;;;;;;6.60;6.10;;;4.00;99.90;;;;;;5070680;28;20439;-68
2023/03/07 04:43:35;;;;;;;5.95;5.45;;;4.00;99.90;;;;;;5085168;28;20425;-67
2023/03/07 04:46:03;;;;;;;6.87;6.27;;;4.00;99.90;;;;;;5082692;28;20539;-67
2023/03/07 04:48:30;;;;;;;6.53;6.03;;;4.00;99.90;;;;;;5079858;28;20429;-67
2023/03/07 04:50:57;;;;;;;6.75;6.15;;;4.00;99.90;;;;;;5073663;28;20433;-69
2023/03/07 04:53:23;;;;;;;7.38;6.68;;;4.00;99.90;;;;;;5074021;28;20430;-66
2023/03/07 04:55:50;;;;;;;6.72;6.13;;;4.00;99.90;;;;;;5063358;28;20443;-69
2023/03/07 04:58:17;;;;;;;7.80;7.10;;;4.00;99.90;;;;;;5073459;28;20517;-66
2023/03/07 05:00:45;;;;;;;7.82;7.13;;;4.00;99.90;;;;;;5074219;28;20443;-69
2023/03/07 05:03:14;;;;;;;7.82;7.13;;;4.00;99.90;;;;;;5072830;28;20432;-67
2023/03/07 05:05:41;;;;;;;8.05;7.35;;;3.90;99.90;;;;;;5071656;28;20563;-67
2023/03/07 05:08:08;;;;;;;8.50;7.70;;;3.90;99.90;;;;;;5062368;28;20433;-67
2023/03/07 05:10:36;;;;;;;8.50;7.70;;;3.90;99.90;;;;;;5070827;28;20436;-67
2023/03/07 05:13:03;;;;;;;9.70;8.83;;;3.90;99.90;;;;;;5069435;28;20963;-67
2023/03/07 05:15:30;;;;;;;8.67;7.87;;;3.90;99.90;;;;;;5067120;28;20414;-65
2023/03/07 05:17:57;;;;;;;9.13;8.32;;;3.90;99.90;;;;;;5084469;28;20425;-68
2023/03/07 05:20:25;;;;;;;9.55;8.75;;;3.90;99.90;;;;;;5087143;28;20693;-71
2023/03/07 05:22:51;;;;;;;9.13;8.30;;;3.90;99.90;;;;;;5072500;28;20423;-70
2023/03/07 05:25:18;;;;;;;9.50;8.60;;;3.90;99.90;;;;;;5079133;28;20427;-72
2023/03/07 05:27:45;;;;;;;9.98;9.07;;;3.90;99.90;;;;;;5065103;28;20430;-70
2023/03/07 05:30:12;;;;;;;9.80;8.90;;;3.90;99.90;;;;;;5072379;28;20434;-71
2023/03/07 05:32:40;;;;;;;10.30;9.30;;;3.80;99.90;;;;;;5075663;28;20415;-70
2023/03/07 05:35:08;;;;;;;10.02;9.02;;;3.80;99.90;;;;;;5062312;28;20421;-72
2023/03/07 05:37:36;;;;;;;10.40;9.40;;;3.80;99.90;;;;;;5060015;28;20420;-74
2023/03/07 05:40:07;;;;;;;10.00;9.10;;;3.80;99.90;;;;;;5076951;28;20819;-75
2023/03/07 05:42:34;;;;;;;9.48;8.57;;;3.80;99.90;;;;;;5074683;28;20443;-74
2023/03/07 05:45:01;;;;;;;9.90;9.00;;;3.80;99.90;;;;;;5081273;28;20432;-72
2023/03/07 05:47:29;;;;;;;10.20;9.27;;;3.80;99.90;;;;;;5068731;28;20598;-73
2023/03/07 05:49:55;;;;;;;9.93;9.02;;;3.90;99.90;;;;;;5067803;28;20491;-73
2023/03/07 05:52:22;;;;;;;9.73;8.85;;;3.80;99.90;;;;;;5062034;28;20431;-78
2023/03/07 05:54:50;;;;;;;10.10;9.20;;;3.90;99.90;;;;;;5069667;28;20456;-72
2023/03/07 05:57:17;;;;;;;10.00;9.10;;;3.80;99.90;;;;;;5074506;28;20453;-73
2023/03/07 05:59:44;;;;;;;10.43;9.43;;;3.90;99.90;;;;;;5085252;28;20419;-74
2023/03/07 06:02:11;;;;;;;10.43;9.43;;;3.90;99.90;;;;;;5069650;28;20480;-73
2023/03/07 06:04:37;;;;;;;10.63;9.73;;;3.90;99.90;;;;;;5057203;28;20430;-73
2023/03/07 06:07:05;;;;;;;9.73;8.82;;;3.90;99.90;;;;;;5065067;28;20437;-72
2023/03/07 06:09:31;;;;;;;9.80;8.90;;;3.90;99.90;;;;;;5062358;28;20934;-73
2023/03/07 06:11:59;;;;;;;10.20;9.20;;;3.90;99.90;;;;;;5070722;28;20443;-71
2023/03/07 06:14:26;;;;;;;10.30;9.30;;;3.90;99.90;;;;;;5053776;28;20461;-70
2023/03/07 06:16:53;;;;;;;10.40;9.50;;;3.90;99.90;;;;;;5068529;22;20551;-71
2023/03/07 06:19:19;;;;;;;10.63;9.63;;;3.90;99.90;;;;;;5067434;28;20446;-70
2023/03/07 06:21:46;;;;;;;11.20;10.20;;;4.00;99.90;;;;;;5071303;28;20535;-71
2023/03/07 06:24:13;;;;;;;13.45;12.15;;;4.00;99.90;;;;;;5064334;28;20451;-70
2023/03/07 06:26:40;;;;;;;12.90;11.70;;;4.00;99.90;;;;;;5057907;28;20436;-69
2023/03/07 06:29:08;;;;;;;13.40;12.00;;;4.00;99.90;;;;;;5053286;28;20545;-69
2023/03/07 06:31:35;;;;;;;12.88;11.68;;;4.10;99.90;;;;;;5050085;28;20451;-69
2023/03/07 06:34:01;;;;;;;12.97;11.67;;;4.00;99.90;;;;;;5050840;28;20424;-69
2023/03/07 06:36:28;;;;;;;13.13;11.82;;;4.00;99.90;;;;;;5051247;28;21244;-69
2023/03/07 06:38:55;;;;;;;13.38;12.02;;;4.10;99.90;;;;;;5054907;28;20417;-70
2023/03/07 06:41:22;;;;;;;13.20;11.80;;;4.00;99.90;;;;;;5043445;28;20524;-70
2023/03/07 06:43:51;;;;;;;13.80;12.40;;;4.00;99.90;;;;;;5047451;28;20466;-71
2023/03/07 06:46:19;;;;;;;12.00;10.88;;;4.00;99.90;;;;;;5051382;28;20429;-71
2023/03/07 06:48:46;;;;;;;12.10;10.90;;;4.10;99.90;;;;;;5053779;28;20512;-71
2023/03/07 06:51:13;;;;;;;12.52;11.25;;;4.10;99.90;;;;;;5046091;28;20435;-72
2023/03/07 06:53:40;;;;;;;13.10;11.90;;;4.10;99.90;;;;;;5049148;28;20433;-72
2023/03/07 06:56:07;;;;;;;12.98;11.68;;;4.10;99.90;;;;;;5048615;28;20458;-71
2023/03/07 06:58:33;;;;;;;12.90;11.60;;;4.20;99.90;;;;;;5050089;28;20417;-72
2023/03/07 07:01:00;;;;;;;13.95;11.55;;;4.10;99.90;;;;;;5051171;28;20432;-69
2023/03/07 07:03:28;;;;;;;12.20;11.00;;;4.10;99.90;;;;;;5051702;28;20508;-70
2023/03/07 07:05:55;;;;;;;12.80;11.50;;;4.20;99.90;;;;;;5050782;28;20428;-71
2023/03/07 07:08:22;;;;;;;12.13;10.90;;;4.20;99.90;;;;;;5051677;28;20458;-71
2023/03/07 07:10:49;;;;;;;13.05;11.65;;;4.20;99.90;;;;;;5046223;28;20432;-70
2023/03/07 07:13:15;;;;;;;13.88;12.20;;;4.30;99.90;;;;;;5053444;28;20420;-69
2023/03/07 07:15:42;;;;;;;13.43;11.80;;;4.30;99.90;;;;;;5054397;28;20417;-72
2023/03/07 07:18:12;;;;;;;13.70;12.40;;;4.40;99.90;;;;;;5049911;28;20418;-69
2023/03/07 07:20:40;;;;;;;14.70;13.20;;;4.40;99.90;;;;;;5051394;28;20415;-72
2023/03/07 07:23:07;;;;;;;11.65;10.45;;;4.40;99.90;;;;;;5044274;28;20422;-70
2023/03/07 07:25:34;;;;;;;12.82;11.52;;;4.50;99.90;;;;;;5048535;28;20435;-71
2023/03/07 07:28:01;;;;;;;12.13;10.93;;;4.50;99.90;;;;;;5055618;28;20413;-70
2023/03/07 07:30:27;;;;;;;11.90;10.70;;;4.50;99.90;;;;;;5054264;28;20425;-70
2023/03/07 07:32:54;;;;;;;11.70;10.50;;;4.50;99.90;;;;;;5051824;28;20413;-71
2023/03/07 07:35:21;;;;;;;10.80;9.80;;;4.50;99.90;;;;;;5053230;28;20411;-70
2023/03/07 07:37:49;;;;;;;10.10;9.10;;;4.60;99.90;;;;;;5046599;28;20774;-71
2023/03/07 07:40:16;;;;;;;9.90;8.90;;;4.70;99.90;;;;;;5050884;28;20444;-71
2023/03/07 07:42:43;;;;;;;9.60;8.60;;;4.60;99.90;;;;;;5053911;28;20417;-72
2023/03/07 07:45:10;;;;;;;9.30;8.40;;;4.60;99.90;;;;;;5058184;28;20415;-71
2023/03/07 07:47:37;;;;;;;9.32;8.32;;;4.70;99.90;;;;;;5050752;28;20797;-71
2023/03/07 07:50:04;;;;;;;8.90;8.10;;;4.70;99.90;;;;;;5053589;28;20438;-71
2023/03/07 07:52:31;;;;;;;8.70;7.90;;;4.70;99.90;;;;;;5051767;28;20891;-71
2023/03/07 07:54:59;;;;;;;9.47;8.40;;;4.70;99.90;;;;;;5047483;28;20432;-70
2023/03/07 07:57:26;;;;;;;10.35;9.00;;;4.80;99.90;;;;;;5055888;28;20682;-72
2023/03/07 07:59:53;;;;;;;9.23;7.85;;;4.70;99.90;;;;;;5054851;28;20786;-68
2023/03/07 08:02:19;;;;;;;9.10;8.20;;;4.70;99.90;;;;;;5048862;28;20444;-71
2023/03/07 08:04:47;;;;;;;9.00;8.10;;;4.70;99.90;;;;;;5051575;28;20918;-71
2023/03/07 08:07:13;;;;;;;10.05;9.00;;;4.60;99.90;;;;;;5053662;28;20464;-71
2023/03/07 08:09:40;;;;;;;9.10;8.20;;;4.70;99.90;;;;;;5055474;28;20457;-71
2023/03/07 08:12:10;;;;;;;9.88;8.88;;;4.70;99.90;;;;;;5055966;28;20442;-72
2023/03/07 08:14:38;;;;;;;9.07;8.20;;;4.60;99.90;;;;;;5053513;28;20415;-71
2023/03/07 08:17:04;;;;;;;9.57;8.57;;;4.60;99.90;;;;;;5049275;28;20428;-71
2023/03/07 08:19:31;;;;;;;8.60;7.80;;;4.60;99.90;;;;;;5055395;28;20417;-70
2023/03/07 08:21:58;;;;;;;8.48;7.68;;;4.60;99.90;;;;;;5059877;28;20417;-72
2023/03/07 08:24:26;;;;;;;9.03;8.23;;;4.60;99.90;;;;;;5044537;28;20436;-69
2023/03/07 08:26:52;;;;;;;8.60;7.80;;;4.60;99.90;;;;;;5050714;28;20478;-71
2023/03/07 08:29:20;;;;;;;8.27;7.47;;;4.60;99.90;;;;;;5056516;28;20431;-71
2023/03/07 08:31:50;;;;;;;8.05;7.25;;;4.70;99.90;;;;;;5054082;28;20819;-68
2023/03/07 08:34:17;;;;;;;8.18;7.45;;;4.80;99.90;;;;;;5056945;28;20945;-71
2023/03/07 08:36:43;;;;;;;7.57;6.65;;;4.80;99.90;;;;;;5048727;28;20437;-71
2023/03/07 08:39:11;;;;;;;6.60;6.00;;;4.80;99.90;;;;;;5052770;28;20423;-69
2023/03/07 08:41:37;;;;;;;7.07;6.43;;;4.80;99.90;;;;;;5048912;28;20515;-70
2023/03/07 08:44:04;;;;;;;6.80;6.20;;;4.90;99.90;;;;;;5051885;28;20437;-69
2023/03/07 08:46:32;;;;;;;7.07;6.40;;;5.00;99.90;;;;;;5049266;28;20424;-69
2023/03/07 08:48:59;;;;;;;7.13;6.43;;;5.10;99.90;;;;;;5047588;28;20436;-71
2023/03/07 08:51:26;;;;;;;6.45;5.85;;;5.20;99.90;;;;;;5054763;28;20424;-71
2023/03/07 08:53:53;;;;;;;6.10;5.60;;;5.20;99.90;;;;;;5053642;28;20413;-71
2023/03/07 08:56:20;;;;;;;6.03;5.50;;;5.20;99.90;;;;;;5058419;28;20786;-70
2023/03/07 08:58:47;;;;;;;6.00;5.40;;;5.30;99.90;;;;;;5050358;28;20795;-71
2023/03/07 09:01:14;;;;;;;6.30;5.70;;;5.30;99.90;;;;;;5058044;28;20776;-71
2023/03/07 09:03:42;;;;;;;6.45;5.95;;;5.40;99.90;;;;;;5051375;28;20417;-70
2023/03/07 09:06:16;;;;;;;5.95;5.45;;;5.40;99.90;;;;;;5059203;28;20412;-70
2023/03/07 09:08:43;;;;;;;6.18;5.38;;;5.30;99.90;;;;;;5047022;28;20731;-70
2023/03/07 09:11:10;;;;;;;6.00;5.50;;;5.40;99.90;;;;;;5055038;28;21101;-70
2023/03/07 09:13:37;;;;;;;6.47;5.60;;;5.40;99.90;;;;;;5052047;28;20413;-70
2023/03/07 09:16:05;;;;;;;6.70;6.10;;;5.40;99.90;;;;;;5059334;28;20424;-71
2023/03/07 09:18:32;;;;;;;6.40;5.80;;;5.50;99.90;;;;;;5052522;28;20415;-70
2023/03/07 09:21:00;;;;;;;6.10;5.60;;;5.50;99.90;;;;;;5054840;28;20421;-71
2023/03/07 09:23:27;;;;;;;5.20;4.80;;;5.60;99.90;;;;;;5054864;28;20423;-68
2023/03/07 09:25:54;;;;;;;5.70;5.10;;;5.60;99.90;;;;;;5054339;28;20426;-69
2023/03/07 09:28:20;;;;;;;5.70;5.10;;;5.70;99.90;;;;;;5050537;28;20430;-69
2023/03/07 09:30:47;;;;;;;5.80;5.30;;;5.60;99.90;;;;;;5053370;28;20425;-69
2023/03/07 09:33:14;;;;;;;5.40;4.90;;;5.70;99.90;;;;;;5053478;28;20590;-71
2023/03/07 09:35:41;;;;;;;5.63;4.90;;;5.70;99.70;;;;;;5047517;28;20938;-70
2023/03/07 09:38:09;;;;;;;6.55;5.55;;;5.80;99.90;;;;;;5051471;28;20418;-70
2023/03/07 09:40:38;;;;;;;6.10;5.50;;;5.80;99.40;;;;;;5051911;28;20451;-70
2023/03/07 09:43:13;;;;;;;5.85;5.25;;;5.80;99.70;;;;;;5050496;28;20413;-69
2023/03/07 09:45:49;;;;;;;6.15;5.10;;;5.90;99.60;;;;;;5051416;28;20409;-71
2023/03/07 09:49:00;;;;;;;6.03;5.53;;;5.90;99.40;;;;;;5050798;28;20415;-70
2023/03/07 09:51:36;;;;;;;6.53;5.93;;;5.90;98.90;;;;;;5049125;28;20433;-70
2023/03/07 09:54:09;;;;;;;6.30;5.70;;;5.90;99.10;;;;;;5052066;28;20424;-70
2023/03/07 09:56:40;;;;;;;6.23;5.60;;;5.90;99.80;;;;;;5052907;28;20425;-70
2023/03/07 09:59:15;;;;;;;7.15;5.80;;;6.00;99.20;;;;;;5058214;28;20426;-69
2023/03/07 10:01:45;;;;;;;6.80;6.00;;;6.00;99.70;;;;;;5050201;28;20607;-70
2023/03/07 10:04:19;;;;;;;6.78;6.18;;;6.00;99.90;;;;;;5047588;28;20424;-71
2023/03/07 10:06:52;;;;;;;6.45;5.85;;;6.00;99.60;;;;;;5045220;28;20424;-70
2023/03/07 10:09:22;;;;;;;6.80;6.10;;;5.90;99.90;;;;;;5050036;28;20428;-70
2023/03/07 10:12:02;;;;;;;7.60;6.90;;;5.80;99.90;;;;;;5052405;28;20448;-70
2023/03/07 10:14:47;;;;;;;7.72;7.03;;;5.80;99.90;;;;;;5051259;28;20445;-69
2023/03/07 10:17:22;;;;;;;7.47;6.80;;;5.80;99.90;;;;;;5048117;28;20425;-70
2023/03/07 10:19:50;;;;;;;7.63;6.93;;;5.80;99.90;;;;;;5053378;28;20529;-70
2023/03/07 10:22:27;;;;;;;7.53;6.43;;;5.80;99.90;;;;;;5042123;28;20426;-70
2023/03/07 10:25:14;;;;;;;7.10;6.40;;;5.80;99.90;;;;;;5055262;28;20885;-72
2023/03/07 10:27:40;;;;;;;6.72;6.13;;;5.70;99.90;;;;;;5048645;28;20415;-70
2023/03/07 10:30:15;;;;;;;6.45;5.85;;;5.60;99.90;;;;;;5049582;28;20438;-69
2023/03/07 10:32:46;;;;;;;5.55;4.95;;;5.60;99.90;;;;;;5045924;28;20428;-69
2023/03/07 10:35:19;;;;;;;5.95;5.45;;;5.50;99.90;;;;;;5047139;28;20536;-71
2023/03/07 10:37:52;;;;;;;5.78;5.28;;;5.40;99.90;;;;;;5057881;28;20493;-71
2023/03/07 10:40:24;;;;;;;5.68;5.18;;;5.40;99.90;;;;;;5050572;28;20916;-71
2023/03/07 10:42:53;;;;;;;5.00;4.60;;;5.40;99.90;;;;;;5053223;28;20433;-69
2023/03/07 10:45:19;;;;;;;5.60;5.10;;;5.40;99.90;;;;;;5055233;28;20442;-71
2023/03/07 10:47:46;;;;;;;5.70;5.20;;;5.40;99.90;;;;;;5050405;28;20444;-71
2023/03/07 10:50:26;;;;;;;5.47;4.97;;;5.40;99.90;;;;;;5045273;28;21098;-70
2023/03/07 10:52:56;;;;;;;5.30;4.90;;;5.40;99.90;;;;;;5054856;28;20417;-70
2023/03/07 10:55:33;;;;;;;5.15;4.75;;;5.30;99.90;;;;;;5053153;28;20924;-71
2023/03/07 10:58:15;;;;;;;5.32;4.82;;;5.30;99.90;;;;;;5054199;28;20424;-70
2023/03/07 11:00:44;;;;;;;5.25;4.85;;;5.30;99.90;;;;;;5042015;28;20767;-71
2023/03/07 11:03:27;;;;;;;6.33;5.37;;;5.30;99.90;;;;;;5049098;28;20431;-71
2023/03/07 11:05:54;;;;;;;5.60;5.10;;;5.30;99.90;;;;;;5045445;28;20433;-71
2023/03/07 11:08:26;;;;;;;6.00;5.50;;;5.30;99.90;;;;;;5055072;28;20627;-71
2023/03/07 11:10:54;;;;;;;6.60;6.00;;;5.30;99.90;;;;;;5057576;28;20433;-71
2023/03/07 11:13:22;;;;;;;5.85;5.35;;;5.30;99.90;;;;;;5051993;28;20436;-71
2023/03/07 11:15:49;;;;;;;6.32;5.80;;;5.30;99.90;;;;;;5048387;28;20442;-71
2023/03/07 11:18:28;;;;;;;6.60;6.00;;;5.30;99.90;;;;;;5055139;28;20771;-71
2023/03/07 11:20:56;;;;;;;7.10;6.35;;;5.30;99.90;;;;;;5048095;28;20692;-71
2023/03/07 11:23:29;;;;;;;7.60;6.60;;;5.30;99.90;;;;;;5044590;28;20520;-71
2023/03/07 11:26:15;;;;;;;7.40;6.70;;;5.30;99.90;;;;;;5048923;28;20427;-71
2023/03/07 11:28:42;;;;;;;7.10;6.47;;;5.30;99.90;;;;;;5047319;28;20937;-70
2023/03/07 11:31:20;;;;;;;8.00;7.30;;;5.30;99.90;;;;;;5044814;28;20928;-71
2023/03/07 11:33:51;;;;;;;7.43;6.73;;;5.30;99.90;;;;;;5047138;28;20440;-70
2023/03/07 11:36:24;;;;;;;8.30;7.50;;;5.30;99.90;;;;;;5046452;28;20435;-71
2023/03/07 11:38:58;;;;;;;8.95;7.85;;;5.40;99.90;;;;;;5049108;28;20876;-71
2023/03/07 11:41:29;;;;;;;8.82;8.02;;;5.40;99.90;;;;;;5056796;28;20746;-72
2023/03/07 11:44:29;;;;;;;7.28;6.57;;;5.40;99.90;;;;;;5045747;28;20436;-70
2023/03/07 11:47:13;;;;;;;8.48;7.50;;;5.50;99.90;;;;;;5043112;28;20437;-71
2023/03/07 11:49:45;;;;;;;10.10;7.72;;;5.40;99.90;;;;;;5054896;28;20425;-71
2023/03/07 11:52:37;;;;;;;8.63;7.83;;;5.40;99.90;;;;;;5043925;28;20458;-71
2023/03/07 11:55:21;;;;;;;9.00;7.70;;;5.30;99.90;;;;;;5046770;28;20440;-72
2023/03/07 11:58:04;;;;;;;7.65;6.95;;;5.30;99.90;;;;;;5048300;28;20418;-71
2023/03/07 12:00:46;;;;;;;9.30;8.30;;;5.20;99.90;;;;;;5042314;28;20414;-72
2023/03/07 12:03:33;;;;;;;8.70;7.90;;;5.20;99.90;;;;;;5045670;28;20412;-71
2023/03/07 12:06:14;;;;;;;8.18;7.38;;;5.20;99.90;;;;;;5048663;28;20413;-71
2023/03/07 12:08:55;;;;;;;9.23;8.32;;;5.20;99.90;;;;;;5048847;28;20444;-71
2023/03/07 12:11:47;;;;;;;9.23;8.10;;;5.20;99.90;;;;;;5046945;28;20428;-72
2023/03/07 12:14:23;;;;;;;9.65;8.75;;;5.20;99.90;;;;;;5039206;28;20804;-71
2023/03/07 12:17:01;;;;;;;10.63;9.70;;;5.20;99.90;;;;;;5067100;22;20554;-71
2023/03/07 12:19:56;;;;;;;9.80;8.80;;;5.20;99.90;;;;;;5072572;28;20671;-74
2023/03/07 12:22:33;;;;;;;9.90;9.00;;;5.20;99.90;;;;;;5067173;28;20507;-71
2023/03/07 12:25:15;;;;;;;9.57;8.63;;;5.30;99.90;;;;;;5077576;28;20839;-74
2023/03/07 12:27:47;;;;;;;9.90;9.00;;;5.20;99.90;;;;;;5065139;28;20502;-74
2023/03/07 12:30:19;;;;;;;10.23;9.23;;;5.10;99.90;;;;;;5062913;28;20427;-73
2023/03/07 12:32:47;;;;;;;9.80;8.82;;;5.10;99.90;;;;;;5054879;28;20413;-72
2023/03/07 12:35:22;;;;;;;9.93;9.02;;;5.00;99.90;;;;;;5059966;28;20431;-71
2023/03/07 12:37:55;;;;;;;11.30;10.30;;;4.90;99.90;;;;;;5063427;28;20430;-73
2023/03/07 12:40:25;;;;;;;12.57;10.18;;;4.90;99.90;;;;;;5058575;28;21110;-73
2023/03/07 12:42:58;;;;;;;11.70;10.70;;;4.90;99.90;;;;;;5057241;28;20433;-73
2023/03/07 12:45:28;;;;;;;10.27;9.27;;;4.90;99.90;;;;;;5062344;28;20413;-73
2023/03/07 12:48:01;;;;;;;10.50;9.60;;;4.90;99.90;;;;;;5062062;28;20415;-73
2023/03/07 12:50:33;;;;;;;9.00;8.20;;;4.80;99.90;;;;;;5064359;28;20433;-74
2023/03/07 12:53:05;;;;;;;8.70;7.95;;;4.70;99.90;;;;;;5057281;28;20856;-74
2023/03/07 12:55:36;;;;;;;7.90;7.30;;;4.60;99.90;;;;;;5064050;28;20765;-74
2023/03/07 12:58:07;;;;;;;7.88;7.18;;;4.50;99.90;;;;;;5071139;28;20416;-74
2023/03/07 13:00:39;;;;;;;7.43;6.80;;;4.50;99.90;;;;;;5061726;28;20909;-73
2023/03/07 13:03:06;;;;;;;7.00;6.40;;;4.50;99.90;;;;;;5069553;28;20432;-73
2023/03/07 13:05:36;;;;;;;6.97;6.38;;;4.40;99.90;;;;;;5062097;28;20973;-73